sensor_id;sensor_type;location;lat;lon;timestamp;temperature;humidity
10702;DHT22;5402;50.004;8.246;2023-03-31T00:02:02;10.80;99.90
10702;DHT22;5402;50.004;8.246;2023-03-31T00:04:32;10.70;99.90
10702;DHT22;5402;50.004;8.246;2023-03-31T00:06:58;10.60;99.90
10702;DHT22;5402;50.004;8.246;2023-03-31T00:09:25;10.60;99.90
10702;DHT22;5402;50.004;8.246;2023-03-31T00:11:54;10.50;99.90
10702;DHT22;5402;50.004;8.246;2023-03-31T00:14:21;10.50;99.90
10702;DHT22;5402;50.004;8.246;2023-03-31T00:16:49;10.40;99.90
10702;DHT22;5402;50.004;8.246;2023-03-31T00:19:16;10.40;99.90
10702;DHT22;5402;50.004;8.246;2023-03-31T00:21:47;10.40;99.90
10702;DHT22;5402;50.004;8.246;2023-03-31T00:24:15;10.30;99.90
10702;DHT22;5402;50.004;8.246;2023-03-31T00:26:43;10.30;99.90
10702;DHT22;5402;50.004;8.246;2023-03-31T00:29:12;10.20;99.90
10702;DHT22;5402;50.004;8.246;2023-03-31T00:31:39;10.30;99.90
10702;DHT22;5402;50.004;8.246;2023-03-31T00:34:07;10.30;99.90
10702;DHT22;5402;50.004;8.246;2023-03-31T00:36:34;10.30;99.90
10702;DHT22;5402;50.004;8.246;2023-03-31T00:39:12;10.20;99.90
10702;DHT22;5402;50.004;8.246;2023-03-31T00:41:39;10.20;99.90
10702;DHT22;5402;50.004;8.246;2023-03-31T00:44:10;10.10;99.90
10702;DHT22;5402;50.004;8.246;2023-03-31T00:46:41;10.00;99.90
10702;DHT22;5402;50.004;8.246;2023-03-31T00:49:16;9.90;99.90
10702;DHT22;5402;50.004;8.246;2023-03-31T00:51:46;9.90;99.90
10702;DHT22;5402;50.004;8.246;2023-03-31T00:54:14;9.90;99.90
10702;DHT22;5402;50.004;8.246;2023-03-31T00:56:45;10.00;99.90
10702;DHT22;5402;50.004;8.246;2023-03-31T00:59:14;10.00;99.90
10702;DHT22;5402;50.004;8.246;2023-03-31T01:01:44;9.90;99.90
10702;DHT22;5402;50.004;8.246;2023-03-31T01:04:14;10.00;99.90
10702;DHT22;5402;50.004;8.246;2023-03-31T01:06:46;9.90;99.90
10702;DHT22;5402;50.004;8.246;2023-03-31T01:09:15;10.00;99.90
10702;DHT22;5402;50.004;8.246;2023-03-31T01:11:43;9.90;99.90
10702;DHT22;5402;50.004;8.246;2023-03-31T01:14:11;9.90;99.90
10702;DHT22;5402;50.004;8.246;2023-03-31T01:16:38;10.00;99.90
10702;DHT22;5402;50.004;8.246;2023-03-31T01:19:07;9.90;99.90
10702;DHT22;5402;50.004;8.246;2023-03-31T01:22:03;10.00;99.90
10702;DHT22;5402;50.004;8.246;2023-03-31T01:24:57;10.00;99.90
10702;DHT22;5402;50.004;8.246;2023-03-31T01:27:57;10.00;99.90
10702;DHT22;5402;50.004;8.246;2023-03-31T01:30:47;10.00;99.90
10702;DHT22;5402;50.004;8.246;2023-03-31T01:33:46;9.90;99.90
10702;DHT22;5402;50.004;8.246;2023-03-31T01:36:33;9.80;99.90
10702;DHT22;5402;50.004;8.246;2023-03-31T01:42:10;9.90;99.90
10702;DHT22;5402;50.004;8.246;2023-03-31T01:44:43;9.80;99.90
10702;DHT22;5402;50.004;8.246;2023-03-31T01:47:15;9.80;99.90
10702;DHT22;5402;50.004;8.246;2023-03-31T01:49:53;9.70;99.90
10702;DHT22;5402;50.004;8.246;2023-03-31T01:52:23;9.70;99.90
10702;DHT22;5402;50.004;8.246;2023-03-31T01:54:53;9.70;99.90
10702;DHT22;5402;50.004;8.246;2023-03-31T01:57:26;9.70;99.90
10702;DHT22;5402;50.004;8.246;2023-03-31T02:00:00;9.70;99.90
10702;DHT22;5402;50.004;8.246;2023-03-31T02:02:31;9.60;99.90
10702;DHT22;5402;50.004;8.246;2023-03-31T02:04:59;9.60;99.90
10702;DHT22;5402;50.004;8.246;2023-03-31T02:07:33;9.60;99.90
10702;DHT22;5402;50.004;8.246;2023-03-31T02:10:03;9.60;99.90
10702;DHT22;5402;50.004;8.246;2023-03-31T02:12:33;9.60;99.90
10702;DHT22;5402;50.004;8.246;2023-03-31T02:15:04;9.60;99.90
10702;DHT22;5402;50.004;8.246;2023-03-31T02:17:34;9.60;99.90
10702;DHT22;5402;50.004;8.246;2023-03-31T02:20:07;9.50;99.90
10702;DHT22;5402;50.004;8.246;2023-03-31T02:22:38;9.50;99.90
10702;DHT22;5402;50.004;8.246;2023-03-31T02:25:08;9.50;99.90
10702;DHT22;5402;50.004;8.246;2023-03-31T02:27:39;9.40;99.90
10702;DHT22;5402;50.004;8.246;2023-03-31T02:30:08;9.50;99.90
10702;DHT22;5402;50.004;8.246;2023-03-31T02:32:36;9.40;99.90
10702;DHT22;5402;50.004;8.246;2023-03-31T02:35:04;9.40;99.90
10702;DHT22;5402;50.004;8.246;2023-03-31T02:37:32;9.50;99.90
10702;DHT22;5402;50.004;8.246;2023-03-31T02:40:04;9.50;99.90
10702;DHT22;5402;50.004;8.246;2023-03-31T02:42:33;9.50;99.90
10702;DHT22;5402;50.004;8.246;2023-03-31T02:45:04;9.50;99.90
10702;DHT22;5402;50.004;8.246;2023-03-31T02:47:32;9.60;99.90
10702;DHT22;5402;50.004;8.246;2023-03-31T02:50:00;9.60;99.90
10702;DHT22;5402;50.004;8.246;2023-03-31T02:52:47;9.60;99.90
10702;DHT22;5402;50.004;8.246;2023-03-31T02:58:30;9.60;99.90
10702;DHT22;5402;50.004;8.246;2023-03-31T03:01:13;9.70;99.90
10702;DHT22;5402;50.004;8.246;2023-03-31T03:03:54;9.60;99.90
10702;DHT22;5402;50.004;8.246;2023-03-31T03:06:32;9.70;99.90
10702;DHT22;5402;50.004;8.246;2023-03-31T03:09:19;9.70;99.90
10702;DHT22;5402;50.004;8.246;2023-03-31T03:11:53;9.70;99.90
10702;DHT22;5402;50.004;8.246;2023-03-31T03:14:27;9.70;99.90
10702;DHT22;5402;50.004;8.246;2023-03-31T03:17:00;9.70;99.90
10702;DHT22;5402;50.004;8.246;2023-03-31T03:19:28;9.70;99.90
10702;DHT22;5402;50.004;8.246;2023-03-31T03:21:55;9.60;99.90
10702;DHT22;5402;50.004;8.246;2023-03-31T03:24:23;9.50;99.90
10702;DHT22;5402;50.004;8.246;2023-03-31T03:26:54;9.40;99.90
10702;DHT22;5402;50.004;8.246;2023-03-31T03:29:21;9.40;99.90
10702;DHT22;5402;50.004;8.246;2023-03-31T03:31:47;9.50;99.90
10702;DHT22;5402;50.004;8.246;2023-03-31T03:34:16;9.50;99.90
10702;DHT22;5402;50.004;8.246;2023-03-31T03:36:45;9.50;99.90
10702;DHT22;5402;50.004;8.246;2023-03-31T03:39:12;9.40;99.90
10702;DHT22;5402;50.004;8.246;2023-03-31T03:41:39;9.50;99.90
10702;DHT22;5402;50.004;8.246;2023-03-31T03:44:06;9.50;99.90
10702;DHT22;5402;50.004;8.246;2023-03-31T03:46:33;9.40;99.90
10702;DHT22;5402;50.004;8.246;2023-03-31T03:49:01;9.40;99.90
10702;DHT22;5402;50.004;8.246;2023-03-31T03:51:29;9.40;99.90
10702;DHT22;5402;50.004;8.246;2023-03-31T03:53:56;9.50;99.90
10702;DHT22;5402;50.004;8.246;2023-03-31T03:56:23;9.50;99.90
10702;DHT22;5402;50.004;8.246;2023-03-31T03:58:50;9.50;99.90
10702;DHT22;5402;50.004;8.246;2023-03-31T04:01:17;9.50;99.90
10702;DHT22;5402;50.004;8.246;2023-03-31T04:03:44;9.50;99.90
10702;DHT22;5402;50.004;8.246;2023-03-31T04:06:10;9.50;99.90
10702;DHT22;5402;50.004;8.246;2023-03-31T04:08:42;9.50;99.90
10702;DHT22;5402;50.004;8.246;2023-03-31T04:11:12;9.50;99.90
10702;DHT22;5402;50.004;8.246;2023-03-31T04:13:40;9.40;99.90
10702;DHT22;5402;50.004;8.246;2023-03-31T04:16:06;9.30;99.90
10702;DHT22;5402;50.004;8.246;2023-03-31T04:18:33;9.40;99.90
10702;DHT22;5402;50.004;8.246;2023-03-31T04:21:02;9.40;99.90
10702;DHT22;5402;50.004;8.246;2023-03-31T04:23:29;9.40;99.90
10702;DHT22;5402;50.004;8.246;2023-03-31T04:25:58;9.40;99.90
10702;DHT22;5402;50.004;8.246;2023-03-31T04:28:25;9.40;99.90
10702;DHT22;5402;50.004;8.246;2023-03-31T04:30:59;9.40;99.90
10702;DHT22;5402;50.004;8.246;2023-03-31T04:33:26;9.50;99.90
10702;DHT22;5402;50.004;8.246;2023-03-31T04:35:52;9.40;99.90
10702;DHT22;5402;50.004;8.246;2023-03-31T04:38:20;9.60;99.90
10702;DHT22;5402;50.004;8.246;2023-03-31T04:40:49;9.60;99.90
10702;DHT22;5402;50.004;8.246;2023-03-31T04:43:18;9.60;99.90
10702;DHT22;5402;50.004;8.246;2023-03-31T04:45:45;9.60;99.90
10702;DHT22;5402;50.004;8.246;2023-03-31T04:48:12;9.50;99.90
10702;DHT22;5402;50.004;8.246;2023-03-31T04:50:39;9.50;99.90
10702;DHT22;5402;50.004;8.246;2023-03-31T04:53:06;9.50;99.90
10702;DHT22;5402;50.004;8.246;2023-03-31T04:55:34;9.40;99.90
10702;DHT22;5402;50.004;8.246;2023-03-31T04:58:00;9.50;99.90
10702;DHT22;5402;50.004;8.246;2023-03-31T05:00:29;9.50;99.90
10702;DHT22;5402;50.004;8.246;2023-03-31T05:02:55;9.40;99.90
10702;DHT22;5402;50.004;8.246;2023-03-31T05:05:22;9.30;99.90
10702;DHT22;5402;50.004;8.246;2023-03-31T05:07:49;9.50;99.90
10702;DHT22;5402;50.004;8.246;2023-03-31T05:10:16;9.40;99.90
10702;DHT22;5402;50.004;8.246;2023-03-31T05:12:43;9.40;99.90
10702;DHT22;5402;50.004;8.246;2023-03-31T05:15:10;9.40;99.90
10702;DHT22;5402;50.004;8.246;2023-03-31T05:17:38;9.50;99.90
10702;DHT22;5402;50.004;8.246;2023-03-31T05:20:05;9.40;99.90
10702;DHT22;5402;50.004;8.246;2023-03-31T05:22:34;9.40;99.90
10702;DHT22;5402;50.004;8.246;2023-03-31T05:25:01;9.50;99.90
10702;DHT22;5402;50.004;8.246;2023-03-31T05:27:28;9.50;99.90
10702;DHT22;5402;50.004;8.246;2023-03-31T05:29:55;9.50;99.90
10702;DHT22;5402;50.004;8.246;2023-03-31T05:32:22;9.60;99.90
10702;DHT22;5402;50.004;8.246;2023-03-31T05:34:51;9.50;99.90
10702;DHT22;5402;50.004;8.246;2023-03-31T05:37:21;9.50;99.90
10702;DHT22;5402;50.004;8.246;2023-03-31T05:39:48;9.50;99.90
10702;DHT22;5402;50.004;8.246;2023-03-31T05:42:15;9.50;99.90
10702;DHT22;5402;50.004;8.246;2023-03-31T05:44:41;9.50;99.90
10702;DHT22;5402;50.004;8.246;2023-03-31T05:47:08;9.50;99.90
10702;DHT22;5402;50.004;8.246;2023-03-31T05:49:35;9.60;99.90
10702;DHT22;5402;50.004;8.246;2023-03-31T05:52:04;9.60;99.90
10702;DHT22;5402;50.004;8.246;2023-03-31T05:54:31;9.60;99.90
10702;DHT22;5402;50.004;8.246;2023-03-31T05:56:58;9.50;99.90
10702;DHT22;5402;50.004;8.246;2023-03-31T05:59:25;9.60;99.90
10702;DHT22;5402;50.004;8.246;2023-03-31T06:01:52;9.60;99.90
10702;DHT22;5402;50.004;8.246;2023-03-31T06:04:19;9.60;99.90
10702;DHT22;5402;50.004;8.246;2023-03-31T06:06:46;9.70;99.90
10702;DHT22;5402;50.004;8.246;2023-03-31T06:09:16;9.50;99.90
10702;DHT22;5402;50.004;8.246;2023-03-31T06:11:43;9.50;99.90
10702;DHT22;5402;50.004;8.246;2023-03-31T06:14:10;9.50;99.90
10702;DHT22;5402;50.004;8.246;2023-03-31T06:16:37;9.50;99.90
10702;DHT22;5402;50.004;8.246;2023-03-31T06:19:04;9.50;99.90
10702;DHT22;5402;50.004;8.246;2023-03-31T06:21:31;9.50;99.90
10702;DHT22;5402;50.004;8.246;2023-03-31T06:23:58;9.60;99.90
10702;DHT22;5402;50.004;8.246;2023-03-31T06:26:27;9.60;99.90
10702;DHT22;5402;50.004;8.246;2023-03-31T06:28:54;9.60;99.90
10702;DHT22;5402;50.004;8.246;2023-03-31T06:31:23;9.60;99.90
10702;DHT22;5402;50.004;8.246;2023-03-31T06:33:50;9.60;99.90
10702;DHT22;5402;50.004;8.246;2023-03-31T06:36:19;9.70;99.90
10702;DHT22;5402;50.004;8.246;2023-03-31T06:38:47;9.60;99.90
10702;DHT22;5402;50.004;8.246;2023-03-31T06:41:15;9.60;99.90
10702;DHT22;5402;50.004;8.246;2023-03-31T06:43:44;9.60;99.90
10702;DHT22;5402;50.004;8.246;2023-03-31T06:46:12;9.60;99.90
10702;DHT22;5402;50.004;8.246;2023-03-31T06:48:44;9.60;99.90
10702;DHT22;5402;50.004;8.246;2023-03-31T06:51:12;9.60;99.90
10702;DHT22;5402;50.004;8.246;2023-03-31T06:53:41;9.60;99.90
10702;DHT22;5402;50.004;8.246;2023-03-31T06:56:08;9.60;99.90
10702;DHT22;5402;50.004;8.246;2023-03-31T06:58:35;9.60;99.90
10702;DHT22;5402;50.004;8.246;2023-03-31T07:01:04;9.60;99.90
10702;DHT22;5402;50.004;8.246;2023-03-31T07:03:32;9.70;99.90
10702;DHT22;5402;50.004;8.246;2023-03-31T07:05:59;9.70;99.90
10702;DHT22;5402;50.004;8.246;2023-03-31T07:08:26;9.70;99.90
10702;DHT22;5402;50.004;8.246;2023-03-31T07:10:55;9.60;99.90
10702;DHT22;5402;50.004;8.246;2023-03-31T07:13:22;9.60;99.90
10702;DHT22;5402;50.004;8.246;2023-03-31T07:15:50;9.60;99.90
10702;DHT22;5402;50.004;8.246;2023-03-31T07:18:18;9.60;99.90
10702;DHT22;5402;50.004;8.246;2023-03-31T07:20:47;9.60;99.90
10702;DHT22;5402;50.004;8.246;2023-03-31T07:23:15;9.60;99.90
10702;DHT22;5402;50.004;8.246;2023-03-31T07:25:42;9.70;99.90
10702;DHT22;5402;50.004;8.246;2023-03-31T07:28:08;9.60;99.90
10702;DHT22;5402;50.004;8.246;2023-03-31T07:30:35;9.70;99.90
10702;DHT22;5402;50.004;8.246;2023-03-31T07:33:02;9.70;99.90
10702;DHT22;5402;50.004;8.246;2023-03-31T07:35:38;9.70;99.90
10702;DHT22;5402;50.004;8.246;2023-03-31T07:38:07;9.80;99.90
10702;DHT22;5402;50.004;8.246;2023-03-31T07:40:34;9.90;99.90
10702;DHT22;5402;50.004;8.246;2023-03-31T07:43:03;10.10;99.90
10702;DHT22;5402;50.004;8.246;2023-03-31T07:45:31;10.30;99.90
10702;DHT22;5402;50.004;8.246;2023-03-31T07:47:58;10.40;99.90
10702;DHT22;5402;50.004;8.246;2023-03-31T07:50:25;10.20;99.90
10702;DHT22;5402;50.004;8.246;2023-03-31T07:52:53;10.20;99.90
10702;DHT22;5402;50.004;8.246;2023-03-31T07:55:20;10.40;99.90
10702;DHT22;5402;50.004;8.246;2023-03-31T07:57:48;10.30;99.90
10702;DHT22;5402;50.004;8.246;2023-03-31T08:00:16;10.30;99.90
10702;DHT22;5402;50.004;8.246;2023-03-31T08:02:43;10.40;99.90
10702;DHT22;5402;50.004;8.246;2023-03-31T08:05:14;10.50;99.90
10702;DHT22;5402;50.004;8.246;2023-03-31T08:07:44;10.50;99.90
10702;DHT22;5402;50.004;8.246;2023-03-31T08:10:14;10.50;99.90
10702;DHT22;5402;50.004;8.246;2023-03-31T08:12:42;10.70;99.90
10702;DHT22;5402;50.004;8.246;2023-03-31T08:15:09;10.70;99.90
10702;DHT22;5402;50.004;8.246;2023-03-31T08:17:39;10.90;99.90
10702;DHT22;5402;50.004;8.246;2023-03-31T08:20:08;10.80;99.90
10702;DHT22;5402;50.004;8.246;2023-03-31T08:22:35;10.70;99.90
10702;DHT22;5402;50.004;8.246;2023-03-31T08:25:08;10.60;99.90
10702;DHT22;5402;50.004;8.246;2023-03-31T08:27:40;10.50;99.90
10702;DHT22;5402;50.004;8.246;2023-03-31T08:30:08;10.50;99.90
10702;DHT22;5402;50.004;8.246;2023-03-31T08:32:36;10.40;99.90
10702;DHT22;5402;50.004;8.246;2023-03-31T08:35:03;10.40;99.90
10702;DHT22;5402;50.004;8.246;2023-03-31T08:37:31;10.40;99.90
10702;DHT22;5402;50.004;8.246;2023-03-31T08:39:58;10.40;99.90
10702;DHT22;5402;50.004;8.246;2023-03-31T08:42:33;10.50;99.90
10702;DHT22;5402;50.004;8.246;2023-03-31T08:45:08;10.50;99.90
10702;DHT22;5402;50.004;8.246;2023-03-31T08:47:36;10.70;99.90
10702;DHT22;5402;50.004;8.246;2023-03-31T08:50:07;11.40;99.90
10702;DHT22;5402;50.004;8.246;2023-03-31T08:52:40;11.70;99.90
10702;DHT22;5402;50.004;8.246;2023-03-31T08:55:12;12.00;99.90
10702;DHT22;5402;50.004;8.246;2023-03-31T08:57:49;12.30;99.90
10702;DHT22;5402;50.004;8.246;2023-03-31T09:00:22;12.70;99.90
10702;DHT22;5402;50.004;8.246;2023-03-31T09:02:54;12.60;99.90
10702;DHT22;5402;50.004;8.246;2023-03-31T09:05:41;12.30;99.90
10702;DHT22;5402;50.004;8.246;2023-03-31T09:08:13;12.10;99.90
10702;DHT22;5402;50.004;8.246;2023-03-31T09:10:52;11.90;99.90
10702;DHT22;5402;50.004;8.246;2023-03-31T09:13:41;11.70;99.90
10702;DHT22;5402;50.004;8.246;2023-03-31T09:16:14;11.80;99.90
10702;DHT22;5402;50.004;8.246;2023-03-31T09:18:41;12.00;99.90
10702;DHT22;5402;50.004;8.246;2023-03-31T09:21:16;12.50;99.90
10702;DHT22;5402;50.004;8.246;2023-03-31T09:23:47;12.80;99.90
10702;DHT22;5402;50.004;8.246;2023-03-31T09:26:22;12.90;99.90
10702;DHT22;5402;50.004;8.246;2023-03-31T09:28:52;13.00;99.90
10702;DHT22;5402;50.004;8.246;2023-03-31T09:31:23;13.20;99.90
10702;DHT22;5402;50.004;8.246;2023-03-31T09:33:53;13.80;99.90
10702;DHT22;5402;50.004;8.246;2023-03-31T09:36:23;13.70;99.90
10702;DHT22;5402;50.004;8.246;2023-03-31T09:38:50;13.40;99.90
10702;DHT22;5402;50.004;8.246;2023-03-31T09:41:17;13.10;99.90
10702;DHT22;5402;50.004;8.246;2023-03-31T09:43:45;12.90;99.90
10702;DHT22;5402;50.004;8.246;2023-03-31T09:46:18;12.70;99.90
10702;DHT22;5402;50.004;8.246;2023-03-31T09:48:52;12.50;99.90
10702;DHT22;5402;50.004;8.246;2023-03-31T09:51:26;12.20;99.90
10702;DHT22;5402;50.004;8.246;2023-03-31T09:53:58;12.00;99.90
10702;DHT22;5402;50.004;8.246;2023-03-31T09:56:33;11.90;99.90
10702;DHT22;5402;50.004;8.246;2023-03-31T09:59:02;11.70;99.90
10702;DHT22;5402;50.004;8.246;2023-03-31T10:01:29;11.60;99.90
10702;DHT22;5402;50.004;8.246;2023-03-31T10:03:58;11.50;99.90
10702;DHT22;5402;50.004;8.246;2023-03-31T10:06:26;11.50;99.90
10702;DHT22;5402;50.004;8.246;2023-03-31T10:08:54;11.40;99.90
10702;DHT22;5402;50.004;8.246;2023-03-31T10:11:24;11.00;99.90
10702;DHT22;5402;50.004;8.246;2023-03-31T10:13:54;10.40;99.90
10702;DHT22;5402;50.004;8.246;2023-03-31T10:16:29;10.10;99.90
10702;DHT22;5402;50.004;8.246;2023-03-31T10:19:11;9.70;99.90
10702;DHT22;5402;50.004;8.246;2023-03-31T10:21:39;9.50;99.90
10702;DHT22;5402;50.004;8.246;2023-03-31T10:24:07;9.30;99.90
10702;DHT22;5402;50.004;8.246;2023-03-31T10:26:35;9.20;99.90
10702;DHT22;5402;50.004;8.246;2023-03-31T10:29:09;9.10;99.90
10702;DHT22;5402;50.004;8.246;2023-03-31T10:31:38;9.10;99.90
10702;DHT22;5402;50.004;8.246;2023-03-31T10:34:07;9.10;99.90
10702;DHT22;5402;50.004;8.246;2023-03-31T10:36:36;9.20;99.90
10702;DHT22;5402;50.004;8.246;2023-03-31T10:39:05;9.30;99.90
10702;DHT22;5402;50.004;8.246;2023-03-31T10:41:33;9.40;99.90
10702;DHT22;5402;50.004;8.246;2023-03-31T10:44:03;9.50;99.90
10702;DHT22;5402;50.004;8.246;2023-03-31T10:46:40;9.70;99.90
10702;DHT22;5402;50.004;8.246;2023-03-31T10:49:19;9.80;99.90
10702;DHT22;5402;50.004;8.246;2023-03-31T10:51:51;9.90;99.90
10702;DHT22;5402;50.004;8.246;2023-03-31T10:54:18;10.00;99.90
10702;DHT22;5402;50.004;8.246;2023-03-31T10:56:47;10.30;99.90
10702;DHT22;5402;50.004;8.246;2023-03-31T10:59:27;10.70;99.90
10702;DHT22;5402;50.004;8.246;2023-03-31T11:02:12;11.20;99.90
10702;DHT22;5402;50.004;8.246;2023-03-31T11:04:54;11.60;99.90
10702;DHT22;5402;50.004;8.246;2023-03-31T11:07:35;11.90;99.90
10702;DHT22;5402;50.004;8.246;2023-03-31T11:10:22;12.20;99.90
10702;DHT22;5402;50.004;8.246;2023-03-31T11:12:54;12.40;99.90
10702;DHT22;5402;50.004;8.246;2023-03-31T11:15:27;12.50;99.90
10702;DHT22;5402;50.004;8.246;2023-03-31T11:18:03;12.80;99.90
10702;DHT22;5402;50.004;8.246;2023-03-31T11:20:39;12.90;99.90
10702;DHT22;5402;50.004;8.246;2023-03-31T11:23:14;13.00;99.90
10702;DHT22;5402;50.004;8.246;2023-03-31T11:25:50;12.90;99.90
10702;DHT22;5402;50.004;8.246;2023-03-31T11:28:24;12.80;99.90
10702;DHT22;5402;50.004;8.246;2023-03-31T11:30:57;12.60;99.90
10702;DHT22;5402;50.004;8.246;2023-03-31T11:33:46;12.50;99.90
10702;DHT22;5402;50.004;8.246;2023-03-31T11:36:22;12.30;99.90
10702;DHT22;5402;50.004;8.246;2023-03-31T11:39:02;12.30;99.90
10702;DHT22;5402;50.004;8.246;2023-03-31T11:41:39;12.40;99.90
10702;DHT22;5402;50.004;8.246;2023-03-31T11:44:10;12.40;99.90
10702;DHT22;5402;50.004;8.246;2023-03-31T11:46:40;12.40;99.90
10702;DHT22;5402;50.004;8.246;2023-03-31T11:49:15;12.30;99.90
10702;DHT22;5402;50.004;8.246;2023-03-31T11:51:49;12.00;99.90
10702;DHT22;5402;50.004;8.246;2023-03-31T11:54:22;11.90;99.90
10702;DHT22;5402;50.004;8.246;2023-03-31T11:56:50;12.00;99.90
10702;DHT22;5402;50.004;8.246;2023-03-31T11:59:19;12.10;99.90
10702;DHT22;5402;50.004;8.246;2023-03-31T12:01:49;12.00;99.90
10702;DHT22;5402;50.004;8.246;2023-03-31T12:04:25;11.90;99.90
10702;DHT22;5402;50.004;8.246;2023-03-31T12:07:02;11.90;99.90
10702;DHT22;5402;50.004;8.246;2023-03-31T12:09:34;12.00;99.90
10702;DHT22;5402;50.004;8.246;2023-03-31T12:12:05;11.80;99.90
10702;DHT22;5402;50.004;8.246;2023-03-31T12:14:39;11.60;99.90
10702;DHT22;5402;50.004;8.246;2023-03-31T12:17:10;11.50;99.90
10702;DHT22;5402;50.004;8.246;2023-03-31T12:19:44;10.80;99.90
10702;DHT22;5402;50.004;8.246;2023-03-31T12:22:17;10.50;99.90
10702;DHT22;5402;50.004;8.246;2023-03-31T12:24:45;10.10;99.90
10702;DHT22;5402;50.004;8.246;2023-03-31T12:27:15;10.00;99.90
10702;DHT22;5402;50.004;8.246;2023-03-31T12:29:47;10.30;99.90
10702;DHT22;5402;50.004;8.246;2023-03-31T12:32:19;10.70;99.90
10702;DHT22;5402;50.004;8.246;2023-03-31T12:34:52;11.20;99.90
10702;DHT22;5402;50.004;8.246;2023-03-31T12:40:53;11.50;99.90
10702;DHT22;5402;50.004;8.246;2023-03-31T12:43:49;11.40;99.90
10702;DHT22;5402;50.004;8.246;2023-03-31T12:49:26;11.50;99.90
10702;DHT22;5402;50.004;8.246;2023-03-31T12:51:59;11.80;99.90
10702;DHT22;5402;50.004;8.246;2023-03-31T12:54:49;11.90;99.90
10702;DHT22;5402;50.004;8.246;2023-03-31T12:57:22;12.00;99.90
10702;DHT22;5402;50.004;8.246;2023-03-31T13:00:14;12.00;99.90
10702;DHT22;5402;50.004;8.246;2023-03-31T13:02:46;12.20;99.90
10702;DHT22;5402;50.004;8.246;2023-03-31T13:05:44;12.30;99.90
10702;DHT22;5402;50.004;8.246;2023-03-31T13:11:14;12.50;99.90
10702;DHT22;5402;50.004;8.246;2023-03-31T13:13:46;12.30;99.90
10702;DHT22;5402;50.004;8.246;2023-03-31T13:16:19;12.10;99.90
10702;DHT22;5402;50.004;8.246;2023-03-31T13:18:50;12.00;99.90
10702;DHT22;5402;50.004;8.246;2023-03-31T13:21:17;11.70;99.90
10702;DHT22;5402;50.004;8.246;2023-03-31T13:23:45;11.70;99.90
10702;DHT22;5402;50.004;8.246;2023-03-31T13:26:37;11.30;99.90
10702;DHT22;5402;50.004;8.246;2023-03-31T13:29:22;11.20;99.90
10702;DHT22;5402;50.004;8.246;2023-03-31T13:32:20;11.10;99.90
10702;DHT22;5402;50.004;8.246;2023-03-31T13:34:53;11.20;99.90
10702;DHT22;5402;50.004;8.246;2023-03-31T13:37:35;11.20;99.90
10702;DHT22;5402;50.004;8.246;2023-03-31T13:40:29;11.10;99.90
10702;DHT22;5402;50.004;8.246;2023-03-31T13:43:13;11.00;99.90
10702;DHT22;5402;50.004;8.246;2023-03-31T13:48:56;11.30;99.90
10702;DHT22;5402;50.004;8.246;2023-03-31T13:51:40;11.40;99.90
10702;DHT22;5402;50.004;8.246;2023-03-31T13:57:24;11.80;99.90
10702;DHT22;5402;50.004;8.246;2023-03-31T14:03:05;11.60;99.90
10702;DHT22;5402;50.004;8.246;2023-03-31T14:05:42;11.70;99.90
10702;DHT22;5402;50.004;8.246;2023-03-31T14:08:12;11.70;99.90
10702;DHT22;5402;50.004;8.246;2023-03-31T14:10:41;11.70;99.90
10702;DHT22;5402;50.004;8.246;2023-03-31T14:13:10;11.70;99.90
10702;DHT22;5402;50.004;8.246;2023-03-31T14:15:41;11.90;99.90
10702;DHT22;5402;50.004;8.246;2023-03-31T14:18:11;12.10;99.90
10702;DHT22;5402;50.004;8.246;2023-03-31T14:20:47;12.30;99.90
10702;DHT22;5402;50.004;8.246;2023-03-31T14:23:25;12.60;99.90
10702;DHT22;5402;50.004;8.246;2023-03-31T14:26:01;13.40;99.90
10702;DHT22;5402;50.004;8.246;2023-03-31T14:28:44;13.50;99.90
10702;DHT22;5402;50.004;8.246;2023-03-31T14:31:20;13.90;99.90
10702;DHT22;5402;50.004;8.246;2023-03-31T14:34:03;14.10;99.90
10702;DHT22;5402;50.004;8.246;2023-03-31T14:36:39;14.20;99.90
10702;DHT22;5402;50.004;8.246;2023-03-31T14:39:12;14.20;99.90
10702;DHT22;5402;50.004;8.246;2023-03-31T14:41:40;14.20;99.90
10702;DHT22;5402;50.004;8.246;2023-03-31T14:44:13;13.90;99.90
10702;DHT22;5402;50.004;8.246;2023-03-31T14:46:40;13.70;99.90
10702;DHT22;5402;50.004;8.246;2023-03-31T14:49:17;13.20;99.90
10702;DHT22;5402;50.004;8.246;2023-03-31T14:51:46;12.50;99.90
10702;DHT22;5402;50.004;8.246;2023-03-31T14:54:15;11.70;99.90
10702;DHT22;5402;50.004;8.246;2023-03-31T14:56:44;11.30;99.90
10702;DHT22;5402;50.004;8.246;2023-03-31T14:59:15;11.30;99.90
10702;DHT22;5402;50.004;8.246;2023-03-31T15:01:45;11.20;99.90
10702;DHT22;5402;50.004;8.246;2023-03-31T15:04:15;11.10;99.90
10702;DHT22;5402;50.004;8.246;2023-03-31T15:06:45;11.10;99.90
10702;DHT22;5402;50.004;8.246;2023-03-31T15:09:19;11.20;99.90
10702;DHT22;5402;50.004;8.246;2023-03-31T15:11:47;11.20;99.90
10702;DHT22;5402;50.004;8.246;2023-03-31T15:14:19;11.30;99.90
10702;DHT22;5402;50.004;8.246;2023-03-31T15:16:45;11.40;99.90
10702;DHT22;5402;50.004;8.246;2023-03-31T15:19:16;11.50;99.90
10702;DHT22;5402;50.004;8.246;2023-03-31T15:21:47;11.70;99.90
10702;DHT22;5402;50.004;8.246;2023-03-31T15:24:19;11.80;99.90
10702;DHT22;5402;50.004;8.246;2023-03-31T15:26:51;11.90;99.90
10702;DHT22;5402;50.004;8.246;2023-03-31T15:29:22;12.00;99.90
10702;DHT22;5402;50.004;8.246;2023-03-31T15:31:50;12.00;99.90
10702;DHT22;5402;50.004;8.246;2023-03-31T15:34:20;12.00;99.90
10702;DHT22;5402;50.004;8.246;2023-03-31T15:36:52;12.00;99.90
10702;DHT22;5402;50.004;8.246;2023-03-31T15:39:19;12.10;99.90
10702;DHT22;5402;50.004;8.246;2023-03-31T15:41:47;12.10;99.90
10702;DHT22;5402;50.004;8.246;2023-03-31T15:44:29;12.10;99.90
10702;DHT22;5402;50.004;8.246;2023-03-31T15:47:05;12.10;99.90
10702;DHT22;5402;50.004;8.246;2023-03-31T15:49:32;12.10;99.90
10702;DHT22;5402;50.004;8.246;2023-03-31T15:52:00;12.10;99.90
10702;DHT22;5402;50.004;8.246;2023-03-31T15:54:33;12.20;99.90
10702;DHT22;5402;50.004;8.246;2023-03-31T15:57:02;12.20;99.90
10702;DHT22;5402;50.004;8.246;2023-03-31T15:59:30;12.20;99.90
10702;DHT22;5402;50.004;8.246;2023-03-31T16:01:57;12.20;99.90
10702;DHT22;5402;50.004;8.246;2023-03-31T16:04:29;12.20;99.90
10702;DHT22;5402;50.004;8.246;2023-03-31T16:07:00;12.20;99.90
10702;DHT22;5402;50.004;8.246;2023-03-31T16:09:39;12.30;99.90
10702;DHT22;5402;50.004;8.246;2023-03-31T16:12:13;12.30;99.90
10702;DHT22;5402;50.004;8.246;2023-03-31T16:14:45;12.40;99.90
10702;DHT22;5402;50.004;8.246;2023-03-31T16:17:21;12.30;99.90
10702;DHT22;5402;50.004;8.246;2023-03-31T16:19:53;12.30;99.90
10702;DHT22;5402;50.004;8.246;2023-03-31T16:22:28;12.20;99.90
10702;DHT22;5402;50.004;8.246;2023-03-31T16:24:58;12.20;99.90
10702;DHT22;5402;50.004;8.246;2023-03-31T16:27:25;12.20;99.90
10702;DHT22;5402;50.004;8.246;2023-03-31T16:30:05;12.20;99.90
10702;DHT22;5402;50.004;8.246;2023-03-31T16:32:32;12.30;99.90
10702;DHT22;5402;50.004;8.246;2023-03-31T16:35:00;12.20;99.90
10702;DHT22;5402;50.004;8.246;2023-03-31T16:37:28;12.30;99.90
10702;DHT22;5402;50.004;8.246;2023-03-31T16:39:56;12.20;99.90
10702;DHT22;5402;50.004;8.246;2023-03-31T16:42:23;12.30;99.90
10702;DHT22;5402;50.004;8.246;2023-03-31T16:44:50;12.30;99.90